createdAt,value
2023-06-09T00:00:33.751Z,38.00
2023-06-09T00:01:12.820Z,61.00
2023-06-09T00:01:53.117Z,71.67
2023-06-09T00:02:41.084Z,112.67
2023-06-09T00:03:33.543Z,120.00
2023-06-09T00:04:32.208Z,102.67
2023-06-09T00:05:41.789Z,121.00
2023-06-09T00:07:21.682Z,128.67
2023-06-09T00:08:20.550Z,151.67
2023-06-09T00:09:08.126Z,143.00
2023-06-09T00:10:25.813Z,155.67
2023-06-09T00:11:13.448Z,246.33
2023-06-09T00:11:54.518Z,277.67
2023-06-09T00:12:32.670Z,341.67
2023-06-09T00:13:07.074Z,379.00
2023-06-09T00:13:44.498Z,392.33
2023-06-09T00:14:25.383Z,408.67
2023-06-09T00:15:00.762Z,404.33
2023-06-09T00:15:37.430Z,404.67
2023-06-09T00:16:10.896Z,410.33
2023-06-09T00:16:49.967Z,388.33
2023-06-09T00:17:27.311Z,367.00
2023-06-09T00:18:04.167Z,371.33
2023-06-09T00:18:41.630Z,373.00
2023-06-09T00:19:23.626Z,370.67
2023-06-09T00:20:35.365Z,396.33
2023-06-09T00:21:11.789Z,407.00
2023-06-09T00:21:53.458Z,417.33
2023-06-09T00:23:02.025Z,407.67
2023-06-09T00:24:10.479Z,381.33
2023-06-09T00:24:44.434Z,361.67
2023-06-09T00:25:22.469Z,355.67
2023-06-09T00:25:56.672Z,347.00
2023-06-09T00:26:31.014Z,324.33
2023-06-09T00:27:08.051Z,293.33
2023-06-09T00:28:16.448Z,268.67
2023-06-09T00:28:49.649Z,254.00
2023-06-09T00:29:23.924Z,243.33
2023-06-09T00:29:57.899Z,256.33
2023-06-09T00:30:38.993Z,273.67
2023-06-09T00:31:15.626Z,286.00
2023-06-09T00:31:50.141Z,285.00
2023-06-09T00:32:23.613Z,278.67
2023-06-09T00:32:57.736Z,278.33
2023-06-09T00:33:31.737Z,283.67
2023-06-09T00:34:05.644Z,286.33
2023-06-09T00:34:39.669Z,289.00
2023-06-09T00:35:14.100Z,294.67
2023-06-09T00:35:50.462Z,312.33
2023-06-09T00:36:26.218Z,317.00
2023-06-09T00:37:01.527Z,314.00
2023-06-09T00:37:37.137Z,313.00
2023-06-09T00:38:11.044Z,312.33
2023-06-09T00:38:44.597Z,313.00
2023-06-09T00:39:17.666Z,318.00
2023-06-09T00:39:59.848Z,328.33
2023-06-09T00:41:08.159Z,356.00
2023-06-09T00:41:43.685Z,355.67
2023-06-09T00:42:53.064Z,372.67
2023-06-09T00:43:28.637Z,382.33
2023-06-09T00:44:04.357Z,394.67
2023-06-09T00:44:37.763Z,402.00
2023-06-09T00:45:13.182Z,403.00
2023-06-09T00:45:48.541Z,404.67
2023-06-09T00:46:22.731Z,406.00
2023-06-09T00:46:56.962Z,408.67
2023-06-09T00:47:29.532Z,407.67
2023-06-09T00:48:05.400Z,403.33
2023-06-09T00:48:41.577Z,403.00
2023-06-09T00:49:16.999Z,413.33
2023-06-09T00:49:51.115Z,418.00
2023-06-09T00:50:26.161Z,412.67
2023-06-09T00:51:01.806Z,401.33
2023-06-09T00:51:37.657Z,402.67
2023-06-09T00:52:11.851Z,397.00
2023-06-09T00:52:46.626Z,393.67
2023-06-09T00:53:21.347Z,390.67
2023-06-09T00:53:57.023Z,386.67
2023-06-09T00:54:33.013Z,378.67
2023-06-09T00:55:09.984Z,368.00
2023-06-09T00:55:45.617Z,357.00
2023-06-09T00:56:21.205Z,354.33
2023-06-09T00:56:56.895Z,355.67
2023-06-09T00:57:35.320Z,347.67
2023-06-09T00:58:11.638Z,343.00
2023-06-09T00:58:46.629Z,345.67
2023-06-09T00:59:25.309Z,350.00
2023-06-09T00:59:58.476Z,355.33
2023-06-09T01:01:23.714Z,389.00
2023-06-09T01:02:20.332Z,406.33
2023-06-09T01:03:16.496Z,416.33
2023-06-09T01:04:25.082Z,425.33
2023-06-09T01:05:02.283Z,426.00
2023-06-09T01:05:45.639Z,424.33
2023-06-09T01:06:40.357Z,431.33
2023-06-09T01:07:47.343Z,435.00
2023-06-09T01:08:34.152Z,445.00
2023-06-09T01:09:35.445Z,450.00
2023-06-09T01:10:49.764Z,453.33
2023-06-09T01:11:43.261Z,454.67
2023-06-09T01:13:07.157Z,452.00
2023-06-09T01:14:03.699Z,457.00
2023-06-09T01:15:48.044Z,447.33
2023-06-09T01:18:12.106Z,434.33
2023-06-09T01:19:39.210Z,435.67
2023-06-09T01:21:00.710Z,434.33
2023-06-09T01:22:40.863Z,422.00
2023-06-09T01:24:04.848Z,406.67
2023-06-09T01:26:47.646Z,390.00
2023-06-09T01:28:52.103Z,370.33
2023-06-09T01:29:44.447Z,365.00
2023-06-09T01:30:56.629Z,360.00
2023-06-09T01:31:44.528Z,336.67
2023-06-09T01:35:12.761Z,291.33
2023-06-09T01:35:58.694Z,288.67
2023-06-09T01:36:34.534Z,300.00
2023-06-09T01:38:05.251Z,309.67
2023-06-09T01:39:44.344Z,259.67
2023-06-09T01:41:10.459Z,211.33
2023-06-09T01:42:45.141Z,205.67
2023-06-09T01:44:16.687Z,240.67
2023-06-09T01:45:08.820Z,235.00
2023-06-09T01:45:59.468Z,239.67
2023-06-09T01:47:14.076Z,260.00
2023-06-09T01:49:07.418Z,262.00
2023-06-09T01:50:51.196Z,270.67
2023-06-09T01:51:29.236Z,290.00
2023-06-09T01:52:18.033Z,298.67
2023-06-09T01:58:12.966Z,261.00
2023-06-09T02:04:02.659Z,322.67
2023-06-09T02:04:57.625Z,370.67
2023-06-09T02:05:54.149Z,404.67
2023-06-09T02:08:38.338Z,429.67
2023-06-09T02:12:58.899Z,426.33
2023-06-09T02:18:45.802Z,435.00
2023-06-09T02:19:53.674Z,442.00
2023-06-09T02:24:29.559Z,434.33
2023-06-09T03:00:52.125Z,456.00
2023-06-09T04:08:57.403Z,480.33
2023-06-09T04:19:10.873Z,479.67
2023-06-09T04:32:10.607Z,469.67
2023-06-09T04:33:18.874Z,468.00
2023-06-09T04:33:59.285Z,466.67
2023-06-09T04:34:39.915Z,466.00
2023-06-09T04:35:20.538Z,466.00
2023-06-09T04:36:48.921Z,467.00
2023-06-09T04:46:12.047Z,451.67
2023-06-09T04:47:16.080Z,450.00
2023-06-09T04:49:34.198Z,450.00
2023-06-09T04:50:37.602Z,450.33
2023-06-09T04:51:30.516Z,451.00
2023-06-09T04:52:26.617Z,451.00
2023-06-09T04:53:57.467Z,451.33
2023-06-09T04:54:36.085Z,451.00
2023-06-09T04:55:48.124Z,450.00
2023-06-09T04:56:26.258Z,451.00
2023-06-09T04:57:03.664Z,451.00
2023-06-09T04:57:54.046Z,450.67
2023-06-09T04:59:02.677Z,449.00
2023-06-09T05:01:05.862Z,449.00
2023-06-09T05:02:33.877Z,448.00
2023-06-09T05:04:57.283Z,440.33
2023-06-09T05:11:29.687Z,465.00
2023-06-09T05:29:59.160Z,452.00
2023-06-09T05:45:11.055Z,432.00
2023-06-09T05:57:28.602Z,427.00
2023-06-09T06:02:13.400Z,426.00
2023-06-09T06:05:08.743Z,426.00
2023-06-09T06:05:46.819Z,426.00
2023-06-09T06:06:22.519Z,426.00
2023-06-09T06:06:55.606Z,425.33
2023-06-09T06:07:33.988Z,425.00
2023-06-09T06:08:10.832Z,425.00
2023-06-09T06:08:47.406Z,424.67
2023-06-09T06:09:19.714Z,424.00
2023-06-09T06:09:52.844Z,424.00
2023-06-09T06:10:27.618Z,423.00
2023-06-09T06:11:08.872Z,423.00
2023-06-09T06:12:19.312Z,422.00
2023-06-09T06:12:52.934Z,421.00
2023-06-09T06:13:30.310Z,421.00
2023-06-09T06:14:41.615Z,423.00
2023-06-09T06:15:22.284Z,422.67
2023-06-09T06:15:54.528Z,421.67
2023-06-09T06:16:29.780Z,421.00
2023-06-09T06:17:38.323Z,421.00
2023-06-09T06:18:11.494Z,420.33
2023-06-09T06:18:47.557Z,420.00
2023-06-09T06:19:23.543Z,419.00
2023-06-09T06:19:59.376Z,418.33
2023-06-09T06:20:31.497Z,418.00
2023-06-09T06:21:03.826Z,418.00
2023-06-09T06:21:46.758Z,418.00
2023-06-09T06:22:25.289Z,418.00
2023-06-09T06:23:00.951Z,418.00
2023-06-09T06:23:33.865Z,418.00
2023-06-09T06:24:06.672Z,418.00
2023-06-09T06:25:14.713Z,420.00
2023-06-09T06:25:47.401Z,422.33
2023-06-09T06:26:19.570Z,423.67
2023-06-09T06:26:51.858Z,423.67
2023-06-09T06:27:57.610Z,423.00
2023-06-09T06:28:30.118Z,423.00
2023-06-09T06:29:35.108Z,423.00
2023-06-09T06:30:10.239Z,423.00
2023-06-09T06:30:43.504Z,422.33
2023-06-09T06:31:18.362Z,421.33
2023-06-09T06:31:50.603Z,420.33
2023-06-09T06:32:24.376Z,420.00
2023-06-09T06:32:56.840Z,418.00
2023-06-09T06:33:31.136Z,415.00
2023-06-09T06:34:06.620Z,413.00
2023-06-09T06:34:40.057Z,412.67
2023-06-09T06:35:12.076Z,412.00
2023-06-09T06:35:44.011Z,412.00
2023-06-09T06:36:16.053Z,412.00
2023-06-09T06:36:48.170Z,412.00
2023-06-09T06:37:20.238Z,410.67
2023-06-09T06:37:52.228Z,407.00
2023-06-09T06:38:24.372Z,402.00
2023-06-09T06:38:56.650Z,398.67
2023-06-09T06:39:29.200Z,393.67
2023-06-09T06:40:34.948Z,395.00
2023-06-09T06:41:07.428Z,396.67
2023-06-09T06:41:40.058Z,397.00
2023-06-09T06:42:12.250Z,396.67
2023-06-09T06:43:17.204Z,393.67
2023-06-09T06:43:51.409Z,392.00
2023-06-09T06:44:23.506Z,387.33
2023-06-09T06:44:58.360Z,386.67
2023-06-09T06:46:03.829Z,390.00
2023-06-09T06:46:36.360Z,390.67
2023-06-09T06:47:08.669Z,389.00
2023-06-09T06:47:42.861Z,377.00
2023-06-09T06:48:17.382Z,366.67
2023-06-09T06:49:22.776Z,364.00
2023-06-09T06:49:55.946Z,359.00
2023-06-09T06:50:28.637Z,356.67
2023-06-09T06:51:01.180Z,354.67
2023-06-09T06:51:33.395Z,352.67
2023-06-09T06:52:11.202Z,351.33
2023-06-09T06:52:43.486Z,343.33
2023-06-09T06:53:52.178Z,358.33
2023-06-09T06:54:24.254Z,361.33
2023-06-09T06:54:56.657Z,360.00
2023-06-09T06:56:01.675Z,359.00
2023-06-09T06:56:33.938Z,359.00
2023-06-09T06:57:42.698Z,357.33
2023-06-09T06:58:14.829Z,357.33
2023-06-09T06:59:20.934Z,355.00
2023-06-09T07:00:04.109Z,356.00
2023-06-09T07:00:40.551Z,357.00
2023-06-09T07:01:22.993Z,357.33
2023-06-09T07:01:55.482Z,357.33
2023-06-09T07:03:04.446Z,353.33
2023-06-09T07:03:41.453Z,351.33
2023-06-09T07:04:52.284Z,351.00
2023-06-09T07:05:59.508Z,350.00
2023-06-09T07:06:35.165Z,348.67
2023-06-09T07:07:12.093Z,348.33
2023-06-09T07:07:54.788Z,348.00
2023-06-09T07:08:27.068Z,343.67
2023-06-09T07:09:33.672Z,318.33
2023-06-09T07:10:41.088Z,319.67
2023-06-09T07:11:14.025Z,320.00
2023-06-09T07:12:22.982Z,321.67
2023-06-09T07:12:56.972Z,328.67
2023-06-09T07:13:35.170Z,329.67
2023-06-09T07:14:59.701Z,299.67
2023-06-09T07:15:33.915Z,276.33
2023-06-09T07:16:39.175Z,292.33
2023-06-09T07:17:11.675Z,290.67
2023-06-09T07:17:44.877Z,272.67
2023-06-09T07:18:56.236Z,246.67
2023-06-09T07:19:29.581Z,242.67
2023-06-09T07:20:03.170Z,242.00
2023-06-09T07:20:35.426Z,257.00
2023-06-09T07:21:07.645Z,250.33
2023-06-09T07:21:43.622Z,240.67
2023-06-09T07:22:19.146Z,235.00
2023-06-09T07:22:53.945Z,233.67
2023-06-09T07:23:28.249Z,242.00
2023-06-09T07:24:00.499Z,261.00
2023-06-09T07:25:10.150Z,281.67
2023-06-09T07:25:42.377Z,323.33
2023-06-09T07:26:14.764Z,317.33
2023-06-09T07:26:49.443Z,304.33
2023-06-09T07:27:57.513Z,301.67
2023-06-09T07:28:32.940Z,300.67
2023-06-09T07:29:06.532Z,299.67
2023-06-09T07:29:38.722Z,296.00
2023-06-09T07:30:11.722Z,279.67
2023-06-09T07:30:44.133Z,269.33
2023-06-09T07:31:17.039Z,269.67
2023-06-09T07:31:49.193Z,268.67
2023-06-09T07:32:21.922Z,269.33
2023-06-09T07:33:32.461Z,269.00
2023-06-09T07:34:05.750Z,269.33
2023-06-09T07:34:39.438Z,264.67
2023-06-09T07:35:14.666Z,241.67
2023-06-09T07:35:50.492Z,224.67
2023-06-09T07:36:22.535Z,230.33
2023-06-09T07:36:55.114Z,249.00
2023-06-09T07:37:27.374Z,255.33
2023-06-09T07:38:32.643Z,258.67
2023-06-09T07:39:08.103Z,259.00
2023-06-09T07:40:19.855Z,259.00
2023-06-09T07:41:29.445Z,322.33
2023-06-09T07:42:04.718Z,326.67
2023-06-09T07:42:36.997Z,310.67
2023-06-09T07:43:09.032Z,299.00
2023-06-09T07:43:41.466Z,293.33
2023-06-09T07:44:13.687Z,277.00
2023-06-09T07:44:45.762Z,259.67
2023-06-09T07:45:18.265Z,254.67
2023-06-09T07:45:50.359Z,248.67
2023-06-09T07:46:22.756Z,233.00
2023-06-09T07:46:54.722Z,220.33
2023-06-09T07:48:01.150Z,224.33
2023-06-09T07:49:07.387Z,203.67
2023-06-09T07:49:39.441Z,199.00
2023-06-09T07:50:12.307Z,201.33
2023-06-09T07:51:00.202Z,200.00
2023-06-09T07:51:34.277Z,180.67
2023-06-09T07:52:23.438Z,166.33
2023-06-09T07:52:56.248Z,185.67
2023-06-09T07:53:28.222Z,198.67
2023-06-09T07:54:00.155Z,203.33
2023-06-09T07:54:32.163Z,187.00
2023-06-09T07:55:05.510Z,191.33
2023-06-09T07:55:37.552Z,194.33
2023-06-09T07:56:10.171Z,186.67
2023-06-09T07:56:42.359Z,182.67
2023-06-09T07:57:14.825Z,174.00
2023-06-09T07:57:46.994Z,170.33
2023-06-09T07:58:19.033Z,179.00
2023-06-09T07:58:51.149Z,184.00
2023-06-09T07:59:23.139Z,183.33
2023-06-09T08:00:30.984Z,180.33
2023-06-09T08:01:03.275Z,185.33
2023-06-09T08:01:35.674Z,189.00
2023-06-09T08:02:07.713Z,190.00
2023-06-09T08:02:42.981Z,190.00
2023-06-09T08:03:15.191Z,191.33
2023-06-09T08:04:20.818Z,194.67
2023-06-09T08:04:56.164Z,196.00
2023-06-09T08:05:28.276Z,193.00
2023-06-09T08:06:00.404Z,185.67
2023-06-09T08:06:35.393Z,174.67
2023-06-09T08:07:10.737Z,174.00
2023-06-09T08:07:42.791Z,180.67
2023-06-09T08:08:15.146Z,182.00
2023-06-09T08:08:53.624Z,185.00
2023-06-09T08:09:28.567Z,220.67
2023-06-09T08:10:00.630Z,230.67
2023-06-09T08:10:36.217Z,216.67
2023-06-09T08:11:08.334Z,211.00
2023-06-09T08:11:40.837Z,189.00
2023-06-09T08:12:13.251Z,166.00
2023-06-09T08:12:47.943Z,167.33
2023-06-09T08:13:56.532Z,161.00
2023-06-09T08:14:36.639Z,153.67
2023-06-09T08:15:09.295Z,134.00
2023-06-09T08:16:15.946Z,116.33
2023-06-09T08:16:48.309Z,120.67
2023-06-09T08:17:23.308Z,117.33
2023-06-09T08:17:59.290Z,109.33
2023-06-09T08:18:31.504Z,101.67
2023-06-09T08:19:03.892Z,104.33
2023-06-09T08:19:36.526Z,115.67
2023-06-09T08:20:09.630Z,121.00
2023-06-09T08:20:42.033Z,113.67
2023-06-09T08:21:14.198Z,104.67
2023-06-09T08:21:46.180Z,103.33
2023-06-09T08:22:18.231Z,111.00
2023-06-09T08:22:50.250Z,117.33
2023-06-09T08:23:22.450Z,123.00
2023-06-09T08:23:54.450Z,127.67
2023-06-09T08:24:26.982Z,150.33
2023-06-09T08:25:00.271Z,182.33
2023-06-09T08:25:32.293Z,189.00
2023-06-09T08:26:04.378Z,196.33
2023-06-09T08:26:36.405Z,201.00
2023-06-09T08:27:08.791Z,187.33
2023-06-09T08:27:41.356Z,173.33
2023-06-09T08:28:13.364Z,169.67
2023-06-09T08:28:49.884Z,166.67
2023-06-09T08:29:22.256Z,161.67
2023-06-09T08:29:54.655Z,158.67
2023-06-09T08:30:26.724Z,158.00
2023-06-09T08:30:58.784Z,158.00
2023-06-09T08:31:33.097Z,159.33
2023-06-09T08:32:05.590Z,160.00
2023-06-09T08:32:37.949Z,160.00
2023-06-09T08:33:10.201Z,160.00
2023-06-09T08:33:42.543Z,159.67
2023-06-09T08:34:14.566Z,159.00
2023-06-09T08:34:46.551Z,157.33
2023-06-09T08:35:18.674Z,143.67
2023-06-09T08:35:50.701Z,133.33
2023-06-09T08:36:24.297Z,136.00
2023-06-09T08:36:58.585Z,139.67
2023-06-09T08:37:31.689Z,140.67
2023-06-09T08:38:03.749Z,141.00
2023-06-09T08:38:36.769Z,138.00
2023-06-09T08:39:09.080Z,131.33
2023-06-09T08:39:41.941Z,131.00
2023-06-09T08:40:14.674Z,159.67
2023-06-09T08:40:50.172Z,202.00
2023-06-09T08:41:26.976Z,195.33
2023-06-09T08:42:05.137Z,175.33
2023-06-09T08:42:38.230Z,168.67
2023-06-09T08:43:11.123Z,158.33
2023-06-09T08:43:43.875Z,153.00
2023-06-09T08:44:19.684Z,156.33
2023-06-09T08:45:08.872Z,160.67
2023-06-09T08:45:45.643Z,154.33
2023-06-09T08:46:53.881Z,121.00
2023-06-09T08:47:29.907Z,117.67
2023-06-09T08:48:04.614Z,112.33
2023-06-09T08:48:51.261Z,120.00
2023-06-09T08:49:23.833Z,151.67
2023-06-09T08:49:59.132Z,154.33
2023-06-09T08:50:32.227Z,153.00
2023-06-09T08:51:04.702Z,153.00
2023-06-09T08:51:38.639Z,152.33
2023-06-09T08:52:10.786Z,150.00
2023-06-09T08:52:43.085Z,144.00
2023-06-09T08:53:15.279Z,131.00
2023-06-09T08:53:47.640Z,112.33
2023-06-09T08:54:19.873Z,98.00
2023-06-09T08:54:53.354Z,91.67
2023-06-09T08:55:25.965Z,87.00
2023-06-09T08:56:00.931Z,95.00
2023-06-09T08:56:34.276Z,111.33
2023-06-09T08:57:08.345Z,110.00
2023-06-09T08:57:42.737Z,107.00
2023-06-09T08:58:16.987Z,108.33
2023-06-09T08:58:50.913Z,102.33
2023-06-09T08:59:23.865Z,101.00
2023-06-09T08:59:57.282Z,101.67
2023-06-09T09:00:30.305Z,102.00
2023-06-09T09:01:03.271Z,99.33
2023-06-09T09:01:37.819Z,96.00
2023-06-09T09:02:11.697Z,92.00
2023-06-09T09:02:47.582Z,91.33
2023-06-09T09:03:20.280Z,98.67
2023-06-09T09:03:52.342Z,100.67
2023-06-09T09:04:24.401Z,100.67
2023-06-09T09:05:01.885Z,96.33
2023-06-09T09:05:34.171Z,86.00
2023-06-09T09:06:06.340Z,79.33
2023-06-09T09:06:38.668Z,79.33
2023-06-09T09:07:12.668Z,82.00
2023-06-09T09:07:48.129Z,88.00
2023-06-09T09:08:21.868Z,90.67
2023-06-09T09:08:53.967Z,92.33
2023-06-09T09:09:26.971Z,94.00
2023-06-09T09:10:00.944Z,95.00
2023-06-09T09:10:33.408Z,94.67
2023-06-09T09:11:05.477Z,93.00
2023-06-09T09:11:38.184Z,90.67
2023-06-09T09:12:18.179Z,85.67
2023-06-09T09:12:52.323Z,73.67
2023-06-09T09:13:30.767Z,73.67
2023-06-09T09:14:15.289Z,78.00
2023-06-09T09:14:48.119Z,224.67
2023-06-09T09:15:20.239Z,230.33
2023-06-09T09:15:53.534Z,194.33
2023-06-09T09:16:36.290Z,158.33
2023-06-09T09:17:13.355Z,132.67
2023-06-09T09:17:49.602Z,96.67
2023-06-09T09:18:22.002Z,80.67
2023-06-09T09:18:55.374Z,81.00
2023-06-09T09:19:29.678Z,81.67
2023-06-09T09:20:08.825Z,82.00
2023-06-09T09:20:43.337Z,85.67
2023-06-09T09:21:23.247Z,89.00
2023-06-09T09:22:07.059Z,84.33
2023-06-09T09:22:48.970Z,82.33
2023-06-09T09:23:30.887Z,78.00
2023-06-09T09:24:07.651Z,78.67
2023-06-09T09:24:46.045Z,81.67
2023-06-09T09:25:28.748Z,83.67
2023-06-09T09:26:01.773Z,83.33
2023-06-09T09:26:34.180Z,79.00
2023-06-09T09:27:20.057Z,76.33
2023-06-09T09:28:06.585Z,78.33
2023-06-09T09:28:41.067Z,80.67
2023-06-09T09:29:13.150Z,82.00
2023-06-09T09:29:45.829Z,82.67
2023-06-09T09:30:17.798Z,83.33
2023-06-09T09:30:50.926Z,85.67
2023-06-09T09:31:32.840Z,92.67
2023-06-09T09:32:05.500Z,109.33
2023-06-09T09:32:38.285Z,113.67
2023-06-09T09:33:14.675Z,117.67
2023-06-09T09:33:49.082Z,124.67
2023-06-09T09:34:21.113Z,138.00
2023-06-09T09:34:54.002Z,146.67
2023-06-09T09:35:26.390Z,144.00
2023-06-09T09:36:00.028Z,144.33
2023-06-09T09:36:34.713Z,155.00
2023-06-09T09:37:15.636Z,157.00
2023-06-09T09:37:47.594Z,151.00
2023-06-09T09:38:32.483Z,142.00
2023-06-09T09:39:07.744Z,145.33
2023-06-09T09:39:52.864Z,172.33
2023-06-09T09:40:24.951Z,197.00
2023-06-09T09:41:00.735Z,186.00
2023-06-09T09:41:33.077Z,170.67
2023-06-09T09:42:09.877Z,158.67
2023-06-09T09:42:46.366Z,155.67
2023-06-09T09:43:19.390Z,152.00
2023-06-09T09:43:57.443Z,149.00
2023-06-09T09:44:44.363Z,139.00
2023-06-09T09:45:26.881Z,130.67
2023-06-09T09:46:06.111Z,124.33
2023-06-09T09:46:38.708Z,126.00
2023-06-09T09:47:15.716Z,132.67
2023-06-09T09:47:47.749Z,141.67
2023-06-09T09:48:23.105Z,147.33
2023-06-09T09:48:58.662Z,148.33
2023-06-09T09:49:30.685Z,160.33
2023-06-09T09:50:03.604Z,165.00
2023-06-09T09:50:39.641Z,159.00
2023-06-09T09:51:12.541Z,153.33
2023-06-09T09:51:44.496Z,141.33
2023-06-09T09:52:16.518Z,141.33
2023-06-09T09:52:52.305Z,139.00
2023-06-09T09:53:26.269Z,134.67
2023-06-09T09:53:59.756Z,131.33
2023-06-09T09:54:31.912Z,127.67
2023-06-09T09:55:10.358Z,126.00
2023-06-09T09:55:44.672Z,124.00
2023-06-09T09:56:22.952Z,122.33
2023-06-09T09:57:00.910Z,121.00
2023-06-09T09:57:33.750Z,118.00
2023-06-09T09:58:08.069Z,118.33
2023-06-09T09:58:43.822Z,120.67
2023-06-09T09:59:16.278Z,121.67
2023-06-09T09:59:49.350Z,121.67
2023-06-09T10:00:22.396Z,119.33
2023-06-09T10:01:04.490Z,117.33
2023-06-09T10:01:38.156Z,119.00
2023-06-09T10:02:20.046Z,117.67
2023-06-09T10:02:55.959Z,111.00
2023-06-09T10:03:29.672Z,110.00
2023-06-09T10:04:02.599Z,111.67
2023-06-09T10:04:37.497Z,113.33
2023-06-09T10:05:12.116Z,114.33
2023-06-09T10:05:49.031Z,115.00
2023-06-09T10:06:28.802Z,115.33
2023-06-09T10:07:03.382Z,117.67
2023-06-09T10:07:39.556Z,117.33
2023-06-09T10:08:16.431Z,111.00
2023-06-09T10:08:49.550Z,111.33
2023-06-09T10:09:25.985Z,113.00
2023-06-09T10:09:58.601Z,113.00
2023-06-09T10:10:32.098Z,110.00
2023-06-09T10:11:04.368Z,104.33
2023-06-09T10:11:38.781Z,100.00
2023-06-09T10:12:12.009Z,93.00
2023-06-09T10:12:45.895Z,93.67
2023-06-09T10:13:18.275Z,99.67
2023-06-09T10:13:50.778Z,101.33
2023-06-09T10:14:23.264Z,102.67
2023-06-09T10:14:57.921Z,104.67
2023-06-09T10:15:30.912Z,108.00
2023-06-09T10:16:03.235Z,108.67
2023-06-09T10:16:36.746Z,104.67
2023-06-09T10:17:09.661Z,99.67
2023-06-09T10:17:44.411Z,101.00
2023-06-09T10:18:16.676Z,101.00
2023-06-09T10:18:49.618Z,105.00
2023-06-09T10:19:24.418Z,122.00
2023-06-09T10:19:57.855Z,122.33
2023-06-09T10:20:31.736Z,116.33
2023-06-09T10:21:04.349Z,113.00
2023-06-09T10:21:37.136Z,126.33
2023-06-09T10:22:10.349Z,127.00
2023-06-09T10:22:43.020Z,124.33
2023-06-09T10:23:16.881Z,121.67
2023-06-09T10:23:49.568Z,120.00
2023-06-09T10:24:23.742Z,116.33
2023-06-09T10:24:56.894Z,108.00
2023-06-09T10:25:29.976Z,95.67
2023-06-09T10:26:03.078Z,87.00
2023-06-09T10:26:38.513Z,79.33
2023-06-09T10:27:11.184Z,85.00
2023-06-09T10:27:43.909Z,91.00
2023-06-09T10:28:19.962Z,93.00
2023-06-09T10:28:51.910Z,95.33
2023-06-09T10:29:23.964Z,141.33
2023-06-09T10:29:56.936Z,165.67
2023-06-09T10:30:29.502Z,146.33
2023-06-09T10:31:04.090Z,132.00
2023-06-09T10:31:41.062Z,128.67
2023-06-09T10:32:21.922Z,126.67
2023-06-09T10:33:07.019Z,124.00
2023-06-09T10:33:43.431Z,120.67
2023-06-09T10:34:17.549Z,106.00
2023-06-09T10:34:53.334Z,92.67
2023-06-09T10:35:30.335Z,97.33
2023-06-09T10:36:10.266Z,100.00
2023-06-09T10:36:42.929Z,102.67
2023-06-09T10:37:31.006Z,101.00
2023-06-09T10:38:24.202Z,93.33
2023-06-09T10:38:56.697Z,97.33
2023-06-09T10:39:52.229Z,98.33
2023-06-09T10:40:31.386Z,99.33
2023-06-09T10:41:09.148Z,99.67
2023-06-09T10:42:00.574Z,99.67
2023-06-09T10:42:50.216Z,103.67
2023-06-09T10:43:40.549Z,105.67
2023-06-09T10:44:42.729Z,106.33
2023-06-09T10:45:16.414Z,108.67
2023-06-09T10:45:58.795Z,116.00
2023-06-09T10:46:44.000Z,128.00
2023-06-09T10:47:43.022Z,138.67
2023-06-09T10:48:35.542Z,147.33
2023-06-09T10:49:07.788Z,137.67
2023-06-09T10:49:40.677Z,134.00
2023-06-09T10:50:44.763Z,132.33
2023-06-09T10:51:28.721Z,141.00
2023-06-09T10:52:00.675Z,143.67
2023-06-09T10:52:42.765Z,140.00
2023-06-09T10:53:17.262Z,138.00
2023-06-09T10:54:13.891Z,136.67
2023-06-09T10:55:29.089Z,120.67
2023-06-09T10:56:42.014Z,92.67
2023-06-09T10:57:36.290Z,105.00
2023-06-09T10:58:40.061Z,110.67
2023-06-09T10:59:46.977Z,130.67
2023-06-09T11:00:19.488Z,136.00
2023-06-09T11:01:08.720Z,137.00
2023-06-09T11:02:03.021Z,145.67
2023-06-09T11:02:35.208Z,137.67
2023-06-09T11:03:10.332Z,132.67
2023-06-09T11:03:42.327Z,125.00
2023-06-09T11:04:45.686Z,121.33
2023-06-09T11:05:22.328Z,130.00
2023-06-09T11:06:01.849Z,134.00
2023-06-09T11:07:14.294Z,134.00
2023-06-09T11:07:49.990Z,134.00
2023-06-09T11:08:21.903Z,127.33
2023-06-09T11:09:15.530Z,125.00
2023-06-09T11:09:52.953Z,139.67
2023-06-09T11:10:26.648Z,141.00
2023-06-09T11:10:58.576Z,138.67
2023-06-09T11:11:50.679Z,136.67
2023-06-09T11:12:29.109Z,137.00
2023-06-09T11:13:01.959Z,139.00
2023-06-09T11:13:41.184Z,144.00
2023-06-09T11:15:02.289Z,161.33
2023-06-09T11:16:04.667Z,148.00
2023-06-09T11:17:14.110Z,148.00
2023-06-09T11:17:48.409Z,144.67
2023-06-09T11:18:20.489Z,144.00
2023-06-09T11:19:24.751Z,144.33
2023-06-09T11:20:10.766Z,154.67
2023-06-09T11:20:43.059Z,169.00
2023-06-09T11:21:18.068Z,171.00
2023-06-09T11:22:04.293Z,164.00
2023-06-09T11:23:00.694Z,157.67
2023-06-09T11:23:33.397Z,156.33
2023-06-09T11:24:06.034Z,156.00
2023-06-09T11:24:48.499Z,155.00
2023-06-09T11:25:20.719Z,153.00
2023-06-09T11:25:54.069Z,152.00
2023-06-09T11:26:27.057Z,151.67
2023-06-09T11:27:19.114Z,153.67
2023-06-09T11:28:11.094Z,233.67
2023-06-09T11:28:43.250Z,231.00
2023-06-09T11:29:20.053Z,222.33
2023-06-09T11:30:09.738Z,225.00
2023-06-09T11:31:03.358Z,263.33
2023-06-09T11:32:01.294Z,244.67
2023-06-09T11:32:50.519Z,212.33
2023-06-09T11:33:43.772Z,203.67
2023-06-09T11:34:57.121Z,201.00
2023-06-09T11:35:29.223Z,201.00
2023-06-09T11:36:01.493Z,201.00
2023-06-09T11:36:34.539Z,200.00
2023-06-09T11:37:07.019Z,198.33
2023-06-09T11:37:39.858Z,188.00
2023-06-09T11:38:13.438Z,178.33
2023-06-09T11:38:47.612Z,180.67
2023-06-09T11:39:20.073Z,182.67
2023-06-09T11:39:53.066Z,187.00
2023-06-09T11:40:26.564Z,191.67
2023-06-09T11:40:58.626Z,191.33
2023-06-09T11:41:31.374Z,238.00
2023-06-09T11:42:04.989Z,263.33
2023-06-09T11:42:37.136Z,248.67
2023-06-09T11:43:10.999Z,235.00
2023-06-09T11:43:50.821Z,222.33
2023-06-09T11:44:26.295Z,219.67
2023-06-09T11:45:02.661Z,219.67
2023-06-09T11:45:36.231Z,218.33
2023-06-09T11:46:13.600Z,217.00
2023-06-09T11:46:45.811Z,217.67
2023-06-09T11:47:31.483Z,222.67
2023-06-09T11:48:07.781Z,220.33
2023-06-09T11:48:57.661Z,211.67
2023-06-09T11:49:29.589Z,195.33
2023-06-09T11:50:03.380Z,192.33
2023-06-09T11:50:46.485Z,195.67
2023-06-09T11:51:18.736Z,196.00
2023-06-09T11:52:01.127Z,196.00
2023-06-09T11:52:34.499Z,193.67
2023-06-09T11:53:11.296Z,184.67
2023-06-09T11:53:49.324Z,174.33
2023-06-09T11:54:21.656Z,167.00
2023-06-09T11:54:53.628Z,158.33
2023-06-09T11:55:26.071Z,159.00
2023-06-09T11:55:58.002Z,164.67
2023-06-09T11:56:30.049Z,161.33
2023-06-09T11:57:02.047Z,158.00
2023-06-09T11:57:35.437Z,158.67
2023-06-09T11:58:10.999Z,163.67
2023-06-09T11:58:43.976Z,170.00
2023-06-09T11:59:27.419Z,171.67
2023-06-09T12:00:15.778Z,188.00
2023-06-09T12:00:48.761Z,191.33
2023-06-09T12:01:24.577Z,191.00
2023-06-09T12:01:56.725Z,191.33
2023-06-09T12:02:29.532Z,190.33
2023-06-09T12:03:02.906Z,193.00
2023-06-09T12:03:38.081Z,210.00
2023-06-09T12:04:10.164Z,224.67
2023-06-09T12:04:43.384Z,224.67
2023-06-09T12:05:15.920Z,222.67
2023-06-09T12:05:49.487Z,224.67
2023-06-09T12:06:21.512Z,217.00
2023-06-09T12:06:53.542Z,212.33
2023-06-09T12:07:25.682Z,210.00
2023-06-09T12:07:58.245Z,208.33
2023-06-09T12:08:30.254Z,208.00
2023-06-09T12:09:24.541Z,207.67
2023-06-09T12:09:58.204Z,206.33
2023-06-09T12:10:31.352Z,205.67
2023-06-09T12:11:03.628Z,203.67
2023-06-09T12:11:35.566Z,204.00
2023-06-09T12:12:08.125Z,218.33
2023-06-09T12:12:44.677Z,215.67
2023-06-09T12:13:17.852Z,212.00
2023-06-09T12:13:49.978Z,209.00
2023-06-09T12:14:22.807Z,205.67
2023-06-09T12:14:54.898Z,204.00
2023-06-09T12:15:28.331Z,202.67